Time;durP1;ratioP1;P1;durP2;ratioP2;P2;SDS_P1;SDS_P2;PMS_P1;PMS_P2;Temp;Humidity;BMP_temperature;BMP_pressure;BME280_temperature;BME280_humidity;BME280_pressure;Samples;Min_cycle;Max_cycle;Signal;HPM_P1;HPM_P2
2023/08/31 00:01:52;;;;;;;5.00;3.20;;;;;;;30.68;40.20;100105.21;102818;1290;61952;-83
2023/08/31 00:04:18;;;;;;;4.50;3.50;;;;;;;30.67;40.26;100102.73;102711;1296;62679;-83
2023/08/31 00:06:45;;;;;;;5.70;3.50;;;;;;;30.67;40.32;100103.23;102751;1289;61421;-83
2023/08/31 00:09:11;;;;;;;5.80;3.80;;;;;;;30.67;40.25;100101.65;102765;1296;61475;-83
2023/08/31 00:11:37;;;;;;;5.10;3.90;;;;;;;30.67;40.30;100100.73;102773;1291;62654;-83
2023/08/31 00:14:03;;;;;;;5.00;3.60;;;;;;;30.67;40.34;100098.53;102793;1291;61371;-83
2023/08/31 00:16:29;;;;;;;6.10;3.90;;;;;;;30.67;40.39;100091.12;102921;1296;61732;-82
2023/08/31 00:18:57;;;;;;;5.80;3.70;;;;;;;30.67;40.40;100085.55;102752;1290;61891;-82
2023/08/31 00:21:22;;;;;;;5.10;3.70;;;;;;;30.66;40.47;100082.31;102653;1297;61256;-82
2023/08/31 00:23:48;;;;;;;6.60;4.00;;;;;;;30.67;40.35;100078.80;102780;1291;61425;-83
2023/08/31 00:26:15;;;;;;;5.00;3.30;;;;;;;30.67;40.39;100078.09;102767;1291;61300;-82
2023/08/31 00:28:42;;;;;;;5.40;3.80;;;;;;;30.66;40.37;100075.99;102783;1296;62175;-83
2023/08/31 00:31:08;;;;;;;5.60;3.70;;;;;;;30.66;40.45;100074.73;102671;1291;62244;-83
2023/08/31 00:33:34;;;;;;;4.90;3.70;;;;;;;30.66;40.38;100077.27;102765;1293;61310;-84
2023/08/31 00:36:03;;;;;;;7.80;3.90;;;;;;;30.66;40.43;100076.57;102745;1297;61590;-83
2023/08/31 00:38:29;;;;;;;5.90;3.90;;;;;;;30.66;40.35;100077.49;102774;1291;61386;-83
2023/08/31 00:40:55;;;;;;;4.70;3.60;;;;;;;30.66;40.35;100077.45;102754;1292;61438;-83
2023/08/31 00:43:20;;;;;;;4.40;3.20;;;;;;;30.66;40.55;100071.67;102761;1289;61411;-83
2023/08/31 00:45:52;;;;;;;6.10;3.50;;;;;;;30.66;40.49;100067.10;102743;1293;61428;-81
2023/08/31 00:48:19;;;;;;;4.50;3.40;;;;;;;30.66;40.37;100068.05;102732;1294;61415;-81
2023/08/31 00:50:45;;;;;;;5.80;3.60;;;;;;;30.65;40.41;100068.09;102722;1293;61328;-82
2023/08/31 00:53:11;;;;;;;5.20;3.60;;;;;;;30.65;40.48;100069.43;102758;1290;61334;-81
2023/08/31 00:55:38;;;;;;;5.80;3.80;;;;;;;30.65;40.43;100073.20;102768;1291;61523;-82
2023/08/31 00:58:05;;;;;;;5.00;3.80;;;;;;;30.65;40.59;100078.48;102674;1289;62081;-82
2023/08/31 01:01:06;;;;;;;5.30;3.50;;;;;;;30.65;40.54;100086.16;102670;1298;61458;-82
2023/08/31 01:03:40;;;;;;;5.50;3.30;;;;;;;30.64;40.57;100092.23;102595;1291;63752;-81
2023/08/31 01:06:41;;;;;;;5.70;3.50;;;;;;;30.65;40.58;100092.10;102835;1289;74317;-83
2023/08/31 01:09:19;;;;;;;4.20;3.30;;;;;;;30.64;40.49;100094.98;102531;1293;61380;-82
2023/08/31 01:12:03;;;;;;;5.30;3.50;;;;;;;30.63;40.44;100099.92;102798;1291;61387;-83
2023/08/31 01:14:34;;;;;;;5.20;3.70;;;;;;;30.64;40.47;100111.20;102755;1290;64921;-83
2023/08/31 01:17:00;;;;;;;4.80;3.30;;;;;;;30.64;40.45;100115.52;102777;1291;65996;-82
2023/08/31 01:19:54;;;;;;;4.70;3.30;;;;;;;30.64;40.49;100113.50;102745;1296;62671;-82
2023/08/31 01:22:43;;;;;;;5.50;3.40;;;;;;;30.63;40.54;100113.96;102253;1296;62069;-82
2023/08/31 01:25:09;;;;;;;;;;;;;;;30.63;40.53;100108.01;102426;1303;64097;-82
2023/08/31 01:27:35;;;;;;;4.70;3.40;;;;;;;30.61;40.61;100107.17;102313;1297;61403;-82
2023/08/31 01:30:03;;;;;;;4.80;3.50;;;;;;;30.61;40.72;100104.54;102127;1302;61499;-82
2023/08/31 01:32:29;;;;;;;5.60;3.40;;;;;;;30.62;40.70;100101.95;102229;1297;61522;-82
2023/08/31 01:34:57;;;;;;;5.00;3.20;;;;;;;30.62;40.59;100104.13;102372;1297;61414;-82
2023/08/31 01:37:47;;;;;;;6.20;3.70;;;;;;;30.62;40.64;100110.84;102244;1299;65749;-82
2023/08/31 01:40:19;;;;;;;5.50;3.50;;;;;;;30.61;40.68;100111.63;102183;1297;61374;-82
2023/08/31 01:42:45;;;;;;;4.10;3.20;;;;;;;30.62;40.72;100106.44;102291;1302;61610;-83
2023/08/31 01:45:11;;;;;;;5.40;3.50;;;;;;;30.63;40.67;100105.15;102200;1296;61412;-83
2023/08/31 01:47:37;;;;;;;4.80;3.20;;;;;;;30.62;40.62;100102.96;102244;1302;61601;-83
2023/08/31 01:50:03;;;;;;;4.20;3.10;;;;;;;30.63;40.74;100101.34;102273;1302;62237;-83
2023/08/31 01:52:28;;;;;;;4.50;3.10;;;;;;;30.62;40.68;100100.23;102365;1297;61935;-83
2023/08/31 01:54:54;;;;;;;5.10;3.40;;;;;;;30.62;40.79;100103.00;102237;1303;61383;-83
2023/08/31 01:57:19;;;;;;;5.50;3.20;;;;;;;30.63;40.72;100104.39;102269;1297;61581;-83
2023/08/31 01:59:45;;;;;;;4.60;3.20;;;;;;;30.62;40.83;100101.75;102452;1291;65768;-83
2023/08/31 02:02:10;;;;;;;5.70;3.70;;;;;;;30.62;40.68;100101.50;102754;1291;61396;-83
2023/08/31 02:04:36;;;;;;;5.90;3.50;;;;;;;30.63;40.72;100103.30;102780;1293;61519;-83
2023/08/31 02:07:01;;;;;;;4.50;3.30;;;;;;;30.63;40.82;100103.89;102630;1297;62277;-83
2023/08/31 02:09:27;;;;;;;4.80;3.30;;;;;;;30.62;40.75;100109.03;102758;1296;62035;-83
2023/08/31 02:11:53;;;;;;;4.40;3.20;;;;;;;30.62;40.80;100111.92;102679;1291;65773;-83
2023/08/31 02:14:18;;;;;;;5.40;3.50;;;;;;;30.62;40.80;100105.39;102776;1291;62394;-83
2023/08/31 02:16:44;;;;;;;4.10;3.10;;;;;;;30.62;40.94;100101.27;102750;1291;61440;-83
2023/08/31 02:19:10;;;;;;;4.30;3.00;;;;;;;30.61;40.79;100099.14;102716;1296;61460;-81
2023/08/31 02:21:35;;;;;;;4.70;3.40;;;;;;;30.61;40.83;100097.71;102764;1291;61415;-83
2023/08/31 02:24:03;;;;;;;4.60;3.20;;;;;;;30.62;40.87;100098.69;102794;1290;62070;-81
2023/08/31 02:26:29;;;;;;;4.90;3.50;;;;;;;30.61;40.88;100107.09;102739;1295;61374;-82
2023/08/31 02:28:55;;;;;;;4.80;3.40;;;;;;;30.61;40.95;100109.11;102755;1291;61330;-82
2023/08/31 02:31:20;;;;;;;5.50;3.40;;;;;;;30.61;40.84;100108.98;102785;1291;61424;-82
2023/08/31 02:33:47;;;;;;;4.50;3.20;;;;;;;30.61;40.85;100108.44;102730;1290;62638;-82
2023/08/31 02:36:12;;;;;;;4.80;3.30;;;;;;;30.61;40.88;100108.39;102727;1291;61398;-82
2023/08/31 02:38:38;;;;;;;4.70;3.40;;;;;;;30.60;40.95;100107.73;102700;1291;62138;-82
2023/08/31 02:41:03;;;;;;;5.30;3.30;;;;;;;30.60;40.89;100108.48;102833;1293;62522;-81
2023/08/31 02:43:30;;;;;;;5.60;3.10;;;;;;;30.60;40.92;100113.55;102815;1296;61429;-82
2023/08/31 02:46:02;;;;;;;4.40;3.30;;;;;;;30.60;40.97;100122.67;102826;1290;66512;-82
2023/08/31 02:48:29;;;;;;;4.60;3.30;;;;;;;30.60;41.03;100132.10;102757;1291;61309;-81
2023/08/31 02:50:58;;;;;;;6.10;3.40;;;;;;;30.60;41.01;100137.20;102721;1296;61362;-82
2023/08/31 02:53:25;;;;;;;4.80;3.00;;;;;;;30.60;41.02;100134.87;102761;1291;63890;-82
2023/08/31 02:55:50;;;;;;;4.40;3.30;;;;;;;30.60;41.09;100132.48;102731;1291;67322;-82
2023/08/31 02:58:16;;;;;;;5.00;3.50;;;;;;;30.59;41.09;100133.98;102758;1290;61457;-82
2023/08/31 03:00:42;;;;;;;4.90;3.20;;;;;;;30.60;41.05;100130.17;102736;1291;62030;-83
2023/08/31 03:03:08;;;;;;;4.00;3.10;;;;;;;30.59;41.14;100129.83;102741;1291;61397;-81
2023/08/31 03:05:34;;;;;;;6.30;3.50;;;;;;;30.59;41.11;100127.14;102650;1296;61377;-81
2023/08/31 03:08:01;;;;;;;5.00;3.30;;;;;;;30.59;41.04;100120.19;102742;1292;62466;-81
2023/08/31 03:10:27;;;;;;;4.60;3.40;;;;;;;30.59;41.10;100118.64;102807;1291;61475;-81
2023/08/31 03:12:53;;;;;;;4.50;3.30;;;;;;;30.59;41.21;100118.80;102733;1296;61334;-81
2023/08/31 03:15:20;;;;;;;5.00;3.20;;;;;;;30.58;41.05;100117.59;102829;1290;61854;-81
2023/08/31 03:17:47;;;;;;;5.20;3.30;;;;;;;30.58;41.19;100117.21;102676;1291;65773;-82
2023/08/31 03:20:12;;;;;;;5.00;3.30;;;;;;;30.58;41.09;100119.80;102721;1296;62427;-81
2023/08/31 03:22:38;;;;;;;4.70;3.20;;;;;;;30.58;41.20;100130.66;102745;1291;61459;-81
2023/08/31 03:25:03;;;;;;;5.10;3.20;;;;;;;30.58;41.12;100134.34;102728;1295;61332;-82
2023/08/31 03:27:29;;;;;;;4.40;3.20;;;;;;;30.58;41.11;100135.45;102706;1290;61441;-82
2023/08/31 03:29:54;;;;;;;5.60;3.20;;;;;;;30.58;41.17;100136.34;102753;1291;61346;-82
2023/08/31 03:32:20;;;;;;;4.40;3.20;;;;;;;30.57;41.12;100134.46;102734;1295;61462;-82
2023/08/31 03:34:45;;;;;;;5.30;3.30;;;;;;;30.57;41.13;100139.55;102762;1291;61937;-81
2023/08/31 03:37:11;;;;;;;5.50;3.60;;;;;;;30.57;41.16;100146.69;102640;1299;61369;-82
2023/08/31 03:39:37;;;;;;;5.90;3.90;;;;;;;30.56;41.27;100145.88;102748;1291;62375;-82
2023/08/31 03:42:03;;;;;;;5.70;3.60;;;;;;;30.55;41.21;100145.79;102790;1290;62355;-82
2023/08/31 03:44:29;;;;;;;6.10;3.70;;;;;;;30.54;41.04;100146.40;102819;1293;61418;-82
2023/08/31 03:46:54;;;;;;;5.60;3.50;;;;;;;30.54;41.18;100150.50;102748;1294;61311;-82
2023/08/31 03:49:20;;;;;;;7.50;3.60;;;;;;;30.53;41.24;100154.38;102746;1291;62584;-81
2023/08/31 03:51:45;;;;;;;6.80;3.50;;;;;;;30.52;41.17;100156.30;102741;1289;61312;-82
2023/08/31 03:54:12;;;;;;;6.60;3.90;;;;;;;30.52;41.05;100159.02;102781;1291;61391;-82
2023/08/31 03:56:38;;;;;;;8.10;3.50;;;;;;;30.51;41.17;100157.75;102831;1289;62288;-82
2023/08/31 03:59:05;;;;;;;6.00;3.80;;;;;;;30.50;41.11;100151.96;103064;1293;61497;-82
2023/08/31 04:01:30;;;;;;;9.30;4.30;;;;;;;30.51;41.16;100150.88;103056;1291;62256;-82
2023/08/31 04:03:56;;;;;;;5.40;3.40;;;;;;;30.51;41.25;100153.39;102998;1291;61349;-82
2023/08/31 04:06:22;;;;;;;5.80;3.80;;;;;;;30.51;41.24;100152.71;102621;1294;62720;-82
2023/08/31 04:08:47;;;;;;;5.50;3.50;;;;;;;30.51;41.09;100155.60;103154;1291;61383;-82
2023/08/31 04:11:13;;;;;;;7.00;4.10;;;;;;;30.51;41.23;100156.52;102725;1291;61440;-81
2023/08/31 04:13:38;;;;;;;6.40;3.60;;;;;;;30.50;41.20;100162.35;102712;1289;63432;-81
2023/08/31 04:16:04;;;;;;;7.90;4.10;;;;;;;30.51;41.18;100159.93;102782;1291;61279;-81
2023/08/31 04:18:29;;;;;;;7.90;4.20;;;;;;;30.50;41.31;100158.88;102758;1291;61334;-83
2023/08/31 04:20:55;;;;;;;5.30;3.60;;;;;;;30.51;41.21;100161.02;103155;1290;61445;-81
2023/08/31 04:23:20;;;;;;;6.00;3.50;;;;;;;30.50;41.09;100163.52;102940;1291;61420;-81
2023/08/31 04:25:47;;;;;;;5.50;3.60;;;;;;;30.50;41.17;100166.33;102843;1296;61492;-81
2023/08/31 04:28:13;;;;;;;6.90;3.70;;;;;;;30.51;41.05;100165.96;102792;1290;61434;-81
2023/08/31 04:30:40;;;;;;;6.50;3.50;;;;;;;30.50;41.05;100170.02;102863;1291;61785;-82
2023/08/31 04:33:06;;;;;;;5.80;3.50;;;;;;;30.50;41.05;100168.00;102835;1291;62280;-82
2023/08/31 04:35:32;;;;;;;6.10;3.90;;;;;;;30.50;41.07;100179.62;102780;1290;61511;-82
2023/08/31 04:37:58;;;;;;;7.10;3.90;;;;;;;30.50;40.99;100183.05;102828;1293;62542;-82
2023/08/31 04:40:24;;;;;;;6.90;4.10;;;;;;;30.50;41.10;100186.70;102712;1295;61334;-82
2023/08/31 04:42:51;;;;;;;6.20;3.90;;;;;;;30.50;40.95;100181.08;102817;1291;62375;-82
2023/08/31 04:45:16;;;;;;;7.20;4.00;;;;;;;30.49;40.95;100175.00;102765;1289;61378;-82
2023/08/31 04:47:42;;;;;;;8.70;4.50;;;;;;;30.49;41.06;100180.82;102751;1293;61474;-82
2023/08/31 04:50:08;;;;;;;7.20;4.30;;;;;;;30.49;41.01;100184.12;102761;1291;61455;-82
2023/08/31 04:52:33;;;;;;;8.60;5.00;;;;;;;30.49;41.11;100190.31;102784;1290;61419;-82
2023/08/31 04:55:00;;;;;;;8.30;4.40;;;;;;;30.49;41.24;100188.81;102794;1291;61621;-82
2023/08/31 04:57:26;;;;;;;6.50;4.70;;;;;;;30.49;41.08;100184.53;102765;1290;63831;-82
2023/08/31 04:59:52;;;;;;;6.40;3.90;;;;;;;30.48;41.12;100190.02;102761;1291;61405;-82
2023/08/31 05:02:18;;;;;;;8.80;4.50;;;;;;;30.49;41.17;100194.88;102758;1291;61455;-82
2023/08/31 05:04:45;;;;;;;7.00;4.10;;;;;;;30.49;41.19;100195.42;102774;1291;61402;-82
2023/08/31 05:07:10;;;;;;;7.10;4.20;;;;;;;30.48;41.13;100197.13;102740;1291;61392;-82
2023/08/31 05:09:36;;;;;;;7.50;4.50;;;;;;;30.48;41.12;100206.20;102755;1291;61494;-82
2023/08/31 05:12:05;;;;;;;7.50;4.90;;;;;;;30.48;41.09;100211.46;102758;1296;61386;-83
2023/08/31 05:14:30;;;;;;;6.80;4.20;;;;;;;30.49;41.25;100216.63;102983;1290;61312;-83
2023/08/31 05:16:56;;;;;;;8.00;4.50;;;;;;;30.49;41.18;100216.84;102819;1291;61452;-83
2023/08/31 05:19:22;;;;;;;8.70;4.50;;;;;;;30.49;41.23;100213.91;103069;1296;61706;-83
2023/08/31 05:21:47;;;;;;;8.00;4.40;;;;;;;30.48;41.16;100211.29;102815;1291;61339;-83
2023/08/31 05:24:14;;;;;;;7.00;4.40;;;;;;;30.48;41.12;100213.80;102778;1291;62089;-83
2023/08/31 05:26:39;;;;;;;8.50;4.10;;;;;;;30.49;41.07;100221.22;102984;1291;61395;-83
2023/08/31 05:29:05;;;;;;;7.20;4.40;;;;;;;30.49;41.08;100220.14;102740;1294;61399;-83
2023/08/31 05:31:31;;;;;;;6.10;3.90;;;;;;;30.49;41.10;100219.86;102794;1293;61406;-82
2023/08/31 05:33:56;;;;;;;7.50;4.50;;;;;;;30.49;41.22;100222.38;102789;1290;61433;-83
2023/08/31 05:36:22;;;;;;;7.90;4.20;;;;;;;30.49;41.15;100227.65;103037;1289;62263;-83
2023/08/31 05:38:48;;;;;;;5.70;3.80;;;;;;;30.49;41.22;100232.09;103410;1290;62550;-83
2023/08/31 05:41:13;;;;;;;9.70;4.30;;;;;;;30.49;41.18;100231.17;102927;1291;62189;-83
2023/08/31 05:43:41;;;;;;;8.50;4.40;;;;;;;30.48;41.05;100229.27;103028;1290;61400;-83
2023/08/31 05:46:08;;;;;;;10.70;4.30;;;;;;;30.47;41.24;100235.02;103105;1291;65955;-83
2023/08/31 05:48:34;;;;;;;7.00;4.60;;;;;;;30.46;41.29;100234.39;103237;1289;61356;-83
2023/08/31 05:51:00;;;;;;;9.30;4.70;;;;;;;30.46;41.29;100233.52;103291;1294;61480;-83
2023/08/31 05:53:25;;;;;;;6.40;4.60;;;;;;;30.46;41.29;100235.84;103155;1293;61451;-82
2023/08/31 05:55:51;;;;;;;10.40;4.90;;;;;;;30.46;41.27;100238.02;102943;1291;61401;-83
2023/08/31 05:58:18;;;;;;;8.20;4.50;;;;;;;30.45;41.23;100237.55;102945;1290;61311;-83
2023/08/31 06:00:43;;;;;;;7.90;4.50;;;;;;;30.46;41.32;100239.83;103135;1290;61412;-83
2023/08/31 06:03:10;;;;;;;9.10;4.70;;;;;;;30.47;41.39;100243.07;102712;1291;325431;-83
2023/08/31 06:05:36;;;;;;;9.80;4.60;;;;;;;30.46;41.40;100246.33;103206;1291;63927;-83
2023/08/31 06:08:01;;;;;;;8.50;4.70;;;;;;;30.46;41.40;100247.52;103110;1293;61328;-83
2023/08/31 06:10:29;;;;;;;7.80;4.60;;;;;;;30.45;41.53;100248.52;102866;1297;61415;-83
2023/08/31 06:12:54;;;;;;;6.30;4.10;;;;;;;30.43;41.49;100253.92;102840;1291;62445;-83
2023/08/31 06:15:20;;;;;;;6.70;4.40;;;;;;;30.42;41.37;100257.92;103200;1292;61412;-83
2023/08/31 06:17:45;;;;;;;7.10;4.30;;;;;;;30.41;41.49;100259.84;103246;1291;61411;-83
2023/08/31 06:20:11;;;;;;;6.90;4.50;;;;;;;30.39;41.53;100261.66;103266;1291;61487;-83
2023/08/31 06:22:36;;;;;;;9.10;4.40;;;;;;;30.38;41.63;100260.16;103019;1291;61286;-83
2023/08/31 06:25:05;;;;;;;8.30;4.00;;;;;;;30.38;41.72;100263.81;102957;1291;61511;-83
2023/08/31 06:27:31;;;;;;;;;;;;;;;30.39;41.61;100267.34;102866;1291;63903;-83
2023/08/31 06:29:56;;;;;;;9.20;4.50;;;;;;;30.37;41.56;100264.89;102818;1293;61395;-83
2023/08/31 06:32:23;;;;;;;7.00;4.10;;;;;;;30.39;41.63;100266.84;102994;1291;61441;-83
2023/08/31 06:34:48;;;;;;;9.30;4.20;;;;;;;30.39;41.65;100265.30;103086;1291;61309;-83
2023/08/31 06:37:14;;;;;;;7.10;4.20;;;;;;;30.41;41.74;100267.73;103008;1297;61456;-83
2023/08/31 06:39:40;;;;;;;6.30;3.90;;;;;;;30.43;41.56;100267.75;103141;1290;61329;-83
2023/08/31 06:42:06;;;;;;;6.20;4.00;;;;;;;30.45;41.66;100269.55;103076;1291;61522;-83
2023/08/31 06:44:32;;;;;;;8.30;4.20;;;;;;;30.47;41.63;100268.45;102979;1291;61802;-83
2023/08/31 06:46:57;;;;;;;5.90;4.10;;;;;;;30.48;41.60;100269.70;102934;1291;61344;-83
2023/08/31 06:49:23;;;;;;;10.80;4.30;;;;;;;30.50;41.65;100275.34;103001;1290;61753;-83
2023/08/31 06:51:49;;;;;;;6.10;3.70;;;;;;;30.51;41.51;100280.27;103211;1289;61982;-83
2023/08/31 06:54:14;;;;;;;9.90;3.90;;;;;;;30.53;41.58;100285.14;103078;1291;61389;-83
2023/08/31 06:56:40;;;;;;;8.10;3.70;;;;;;;30.54;41.63;100286.15;103081;1290;61407;-83
2023/08/31 06:59:05;;;;;;;8.80;4.00;;;;;;;30.54;41.50;100284.42;103006;1291;61305;-83
2023/08/31 07:01:32;;;;;;;8.40;3.80;;;;;;;30.54;41.46;100284.59;103130;1291;62373;-83
2023/08/31 07:03:58;;;;;;;5.90;3.90;;;;;;;30.55;41.49;100287.65;103070;1289;61800;-83
2023/08/31 07:06:23;;;;;;;5.70;3.90;;;;;;;30.54;41.55;100288.40;103336;1293;61494;-83
2023/08/31 07:08:49;;;;;;;8.50;3.90;;;;;;;30.55;41.38;100293.36;103021;1291;61403;-83
2023/08/31 07:11:14;;;;;;;6.70;3.90;;;;;;;30.56;41.36;100293.29;103038;1291;61420;-83
2023/08/31 07:13:41;;;;;;;6.30;4.00;;;;;;;30.57;41.41;100290.08;103134;1291;64895;-81
2023/08/31 07:16:06;;;;;;;7.20;4.00;;;;;;;30.57;41.39;100293.86;103011;1296;61405;-81
2023/08/31 07:18:32;;;;;;;6.60;4.10;;;;;;;30.58;41.46;100291.82;103454;1290;61417;-81
2023/08/31 07:20:57;;;;;;;9.00;4.20;;;;;;;30.58;41.42;100298.27;103054;1291;61532;-82
2023/08/31 07:23:23;;;;;;;8.10;4.50;;;;;;;30.60;41.39;100296.83;103244;1291;61384;-82
2023/08/31 07:25:49;;;;;;;6.20;3.70;;;;;;;30.61;41.42;100300.73;103289;1291;61381;-82
2023/08/31 07:28:14;;;;;;;6.90;3.80;;;;;;;30.61;41.26;100299.44;103263;1291;65832;-83
2023/08/31 07:30:40;;;;;;;6.10;3.90;;;;;;;30.62;41.28;100299.16;103088;1291;61406;-83
2023/08/31 07:33:06;;;;;;;6.30;3.90;;;;;;;30.62;41.24;100300.02;103199;1291;61408;-82
2023/08/31 07:35:32;;;;;;;7.90;3.80;;;;;;;30.63;41.23;100300.61;103168;1291;61256;-82
2023/08/31 07:37:57;;;;;;;7.20;3.90;;;;;;;30.63;41.25;100302.06;103152;1291;61882;-82
2023/08/31 07:40:23;;;;;;;7.80;3.70;;;;;;;30.64;41.25;100305.61;103171;1291;61450;-82
2023/08/31 07:42:51;;;;;;;6.90;4.30;;;;;;;30.64;41.28;100306.66;103276;1290;61355;-82
2023/08/31 07:45:16;;;;;;;6.30;4.00;;;;;;;30.65;41.24;100301.89;102928;1291;61406;-82
2023/08/31 07:47:42;;;;;;;6.50;4.00;;;;;;;30.65;41.06;100307.98;103184;1293;62356;-82
2023/08/31 07:50:08;;;;;;;6.20;4.10;;;;;;;30.66;41.08;100303.38;103219;1290;61433;-82
2023/08/31 07:52:34;;;;;;;8.60;4.10;;;;;;;30.67;41.11;100304.94;103494;1290;61387;-82
2023/08/31 07:55:00;;;;;;;6.90;3.90;;;;;;;30.67;41.19;100304.36;103107;1296;61387;-82
2023/08/31 07:57:25;;;;;;;7.40;4.20;;;;;;;30.68;41.17;100311.16;103298;1291;61319;-82
2023/08/31 07:59:51;;;;;;;7.40;3.80;;;;;;;30.69;41.07;100316.48;103418;1294;61371;-82
2023/08/31 08:02:17;;;;;;;6.70;3.80;;;;;;;30.69;41.15;100315.36;103382;1290;61299;-82
2023/08/31 08:04:42;;;;;;;6.50;4.00;;;;;;;30.70;41.11;100319.99;103239;1292;61456;-82
2023/08/31 08:07:08;;;;;;;6.70;4.60;;;;;;;30.70;41.06;100319.58;103122;1289;61368;-82
2023/08/31 08:09:35;;;;;;;6.20;4.30;;;;;;;30.70;41.08;100315.72;103324;1291;61354;-82
2023/08/31 08:12:00;;;;;;;8.40;4.30;;;;;;;30.71;41.03;100314.26;103027;1290;61402;-82
2023/08/31 08:14:26;;;;;;;7.30;4.10;;;;;;;30.71;41.07;100317.45;103226;1291;61321;-82
2023/08/31 08:16:52;;;;;;;8.50;4.50;;;;;;;30.72;41.18;100315.75;103037;1289;61475;-82
2023/08/31 08:19:22;;;;;;;7.60;4.20;;;;;;;30.71;40.94;100317.04;103185;1290;61341;-82
2023/08/31 08:21:48;;;;;;;7.20;4.10;;;;;;;30.71;40.97;100316.04;103210;1289;63907;-82
2023/08/31 08:24:13;;;;;;;8.30;4.60;;;;;;;30.72;40.98;100318.48;102959;1291;62384;-82
2023/08/31 08:26:39;;;;;;;8.60;4.40;;;;;;;30.71;40.97;100317.45;102958;1296;61417;-82
2023/08/31 08:29:05;;;;;;;6.40;4.40;;;;;;;30.71;40.93;100315.89;103345;1291;61319;-82
2023/08/31 08:31:31;;;;;;;6.10;4.00;;;;;;;30.70;40.91;100310.27;103311;1289;61381;-82
2023/08/31 08:33:56;;;;;;;7.70;4.30;;;;;;;30.71;40.90;100310.42;103291;1296;61521;-82
2023/08/31 08:36:22;;;;;;;6.30;4.30;;;;;;;30.71;40.90;100309.13;103056;1291;64508;-82
2023/08/31 08:38:47;;;;;;;7.20;4.60;;;;;;;30.72;40.84;100309.21;103026;1291;61416;-82
2023/08/31 08:41:14;;;;;;;6.10;4.30;;;;;;;30.72;41.01;100309.04;103142;1291;61367;-82
2023/08/31 08:43:40;;;;;;;6.00;4.00;;;;;;;30.71;40.83;100309.80;103177;1290;62321;-82
2023/08/31 08:46:06;;;;;;;5.30;4.10;;;;;;;30.72;40.88;100308.42;103305;1293;61417;-82
2023/08/31 08:48:35;;;;;;;6.20;4.50;;;;;;;30.72;40.93;100311.48;102800;1291;61494;-82
2023/08/31 08:51:04;;;;;;;7.10;4.10;;;;;;;30.72;40.86;100312.02;102886;1296;61424;-82
2023/08/31 08:53:30;;;;;;;6.10;4.30;;;;;;;30.73;40.72;100309.81;103035;1292;64928;-82
2023/08/31 08:55:55;;;;;;;7.50;4.60;;;;;;;30.73;40.65;100310.89;102888;1290;61396;-82
2023/08/31 08:58:21;;;;;;;7.70;4.90;;;;;;;30.72;40.76;100312.57;103081;1291;61264;-82
2023/08/31 09:00:47;;;;;;;5.30;3.90;;;;;;;30.72;40.75;100311.84;103071;1293;61383;-83
2023/08/31 09:03:12;;;;;;;7.30;4.40;;;;;;;30.72;40.63;100313.83;102921;1291;61526;-84
2023/08/31 09:05:38;;;;;;;7.40;4.50;;;;;;;30.73;40.65;100315.23;102935;1291;61341;-83
2023/08/31 09:08:10;;;;;;;5.90;4.70;;;;;;;30.73;40.72;100312.11;103132;1296;61401;-83
2023/08/31 09:10:40;;;;;;;7.70;4.60;;;;;;;30.73;40.74;100311.23;102851;1291;61283;-82
2023/08/31 09:13:12;;;;;;;8.40;5.00;;;;;;;30.73;40.68;100309.77;102966;1291;61367;-82
2023/08/31 09:15:45;;;;;;;6.20;4.30;;;;;;;30.73;40.65;100309.77;103042;1291;64958;-82
2023/08/31 09:18:15;;;;;;;6.50;4.40;;;;;;;30.73;40.52;100308.28;103105;1291;74322;-82
2023/08/31 09:20:47;;;;;;;6.60;4.20;;;;;;;30.73;40.61;100310.28;102944;1291;61422;-82
2023/08/31 09:23:14;;;;;;;7.30;4.50;;;;;;;30.74;40.53;100308.95;103134;1290;61714;-82
2023/08/31 09:25:44;;;;;;;9.00;4.90;;;;;;;30.74;40.47;100311.13;102936;1291;63845;-82
2023/08/31 09:28:11;;;;;;;6.40;4.50;;;;;;;30.74;40.46;100309.42;102992;1291;66778;-82
2023/08/31 09:30:37;;;;;;;6.20;4.70;;;;;;;30.75;40.37;100304.30;103136;1291;61319;-82
2023/08/31 09:33:07;;;;;;;6.10;4.10;;;;;;;30.75;40.42;100300.32;103196;1291;61397;-82
2023/08/31 09:35:34;;;;;;;6.60;4.70;;;;;;;30.75;40.45;100298.27;103103;1289;63540;-82
2023/08/31 09:38:02;;;;;;;8.30;4.60;;;;;;;30.74;40.35;100296.88;103064;1291;65868;-82
2023/08/31 09:40:30;;;;;;;7.80;4.90;;;;;;;30.75;40.30;100304.45;103016;1292;61427;-82
2023/08/31 09:42:55;;;;;;;7.10;4.60;;;;;;;30.75;40.45;100304.20;103135;1291;61574;-82
2023/08/31 09:45:26;;;;;;;8.40;4.70;;;;;;;30.75;40.40;100301.13;102947;1291;61395;-82
2023/08/31 09:47:51;;;;;;;6.20;4.70;;;;;;;30.75;40.37;100304.73;103004;1291;65933;-82
2023/08/31 09:50:17;;;;;;;6.10;4.30;;;;;;;30.76;40.38;100299.64;103005;1291;61415;-82
2023/08/31 09:52:44;;;;;;;6.90;4.70;;;;;;;30.76;40.32;100303.58;102894;1291;62037;-82
2023/08/31 09:55:11;;;;;;;6.40;4.60;;;;;;;30.76;40.24;100299.45;102918;1296;61356;-82
2023/08/31 09:57:36;;;;;;;6.90;4.70;;;;;;;30.76;40.16;100302.31;103102;1291;61394;-82
2023/08/31 10:00:02;;;;;;;6.30;4.90;;;;;;;30.76;40.23;100303.00;103242;1290;61439;-82
2023/08/31 10:02:28;;;;;;;5.60;4.70;;;;;;;30.76;40.20;100308.14;103009;1291;61472;-82
2023/08/31 10:04:53;;;;;;;8.10;4.70;;;;;;;30.76;40.21;100309.74;103001;1289;62033;-82
2023/08/31 10:07:19;;;;;;;6.70;4.70;;;;;;;30.76;40.14;100308.31;103611;1291;63743;-83
2023/08/31 10:09:44;;;;;;;6.30;4.60;;;;;;;30.77;40.06;100309.54;103339;1289;61527;-82
2023/08/31 10:12:10;;;;;;;6.40;4.50;;;;;;;30.77;40.13;100310.04;103026;1291;61792;-82
2023/08/31 10:14:35;;;;;;;8.50;4.90;;;;;;;30.78;40.13;100312.15;102989;1291;61332;-82
2023/08/31 10:17:01;;;;;;;6.80;4.60;;;;;;;30.78;40.04;100308.34;103232;1291;61387;-82
2023/08/31 10:19:26;;;;;;;6.90;4.40;;;;;;;30.77;39.97;100308.92;102868;1290;64897;-82
2023/08/31 10:21:52;;;;;;;5.60;4.50;;;;;;;30.77;39.90;100310.71;103145;1290;61409;-83
2023/08/31 10:24:18;;;;;;;6.80;4.40;;;;;;;30.77;39.74;100313.85;102913;1291;61871;-82
2023/08/31 10:26:44;;;;;;;6.30;4.40;;;;;;;30.77;39.92;100306.65;102808;1291;61452;-82
2023/08/31 10:29:25;;;;;;;8.50;4.60;;;;;;;30.77;39.86;100308.58;103185;1296;62587;-82
2023/08/31 10:31:51;;;;;;;6.90;4.30;;;;;;;30.77;39.71;100310.63;102945;1291;65888;-82
2023/08/31 10:34:16;;;;;;;5.90;4.10;;;;;;;30.76;39.73;100305.55;103003;1291;62049;-82
2023/08/31 10:36:45;;;;;;;7.30;4.40;;;;;;;30.76;39.76;100299.73;103107;1290;61438;-82
2023/08/31 10:39:12;;;;;;;7.00;4.40;;;;;;;30.76;39.72;100298.71;103623;1291;61278;-82
2023/08/31 10:41:39;;;;;;;9.10;4.50;;;;;;;30.76;39.62;100300.09;102977;1291;65792;-82
2023/08/31 10:44:19;;;;;;;6.00;4.20;;;;;;;30.76;39.52;100297.92;102966;1292;61276;-83
2023/08/31 10:46:45;;;;;;;5.60;3.90;;;;;;;30.76;39.52;100301.27;103056;1293;61299;-82
2023/08/31 10:49:14;;;;;;;5.80;4.10;;;;;;;30.76;39.49;100300.35;103052;1291;63869;-83
2023/08/31 10:51:55;;;;;;;5.90;4.20;;;;;;;30.76;39.34;100299.80;103266;1292;66081;-83
2023/08/31 10:54:30;;;;;;;7.30;4.70;;;;;;;30.75;39.33;100296.81;103559;1292;61465;-82
2023/08/31 10:57:00;;;;;;;7.40;4.60;;;;;;;30.75;39.23;100297.73;103705;1289;61258;-81
2023/08/31 10:59:27;;;;;;;8.20;4.30;;;;;;;30.75;39.34;100302.80;103443;1290;63884;-81
2023/08/31 11:01:57;;;;;;;6.50;4.60;;;;;;;30.75;39.20;100298.98;103260;1294;67092;-82
2023/08/31 11:04:23;;;;;;;5.40;4.20;;;;;;;30.75;39.16;100297.48;103084;1292;61446;-83
2023/08/31 11:06:57;;;;;;;7.30;4.10;;;;;;;30.76;39.16;100303.63;103094;1292;61283;-83
2023/08/31 11:09:22;;;;;;;6.30;4.20;;;;;;;30.76;38.98;100302.56;102812;1291;63732;-82
2023/08/31 11:11:48;;;;;;;6.10;4.40;;;;;;;30.75;38.91;100297.87;102778;1294;61970;-83
2023/08/31 11:14:15;;;;;;;6.30;4.20;;;;;;;30.75;38.92;100292.08;102753;1291;61840;-83
2023/08/31 11:16:41;;;;;;;7.10;4.30;;;;;;;30.76;38.80;100289.87;103192;1291;62040;-83